Granger, Minnesota
Current Conditions -  °F | °C
As of 8:15 AM on Monday 20 Oct 2014 (Local Time) from KFKA Reporting Station
Clear Clear  
Wind Chill: 39°   Ceiling: Unl
Heat Index: 44°   Visibility: 10mi
Dew Point: 40°   Wind: 8mph
Humidity: 88%   Direction: 290°WNW
Pressure: 29.96"   Gusts: NA
Location:  43.57°N, 92.0698°W
Report Text: KFKA 201315Z AUTO 29007KT 10SM CLR 06/05 A2996 RMK AO2 T00640045
Loading
Personal Weather Stations






























Interactive Weather Map
Tropical Storm Tracking
New forecast layout! Learn more

10-Day Weather Forecast

Advertisements
Track Severe Weather on mobile